Time;durP1;ratioP1;P1;durP2;ratioP2;P2;SDS_P1;SDS_P2;PMS_P1;PMS_P2;Temp;Humidity;BMP_temperature;BMP_pressure;BME280_temperature;BME280_humidity;BME280_pressure;Samples;Min_cycle;Max_cycle;Signal;HPM_P1;HPM_P2
2022/12/01 05:22:35;;;;;;;9.52;4.55;;;;;;;3.54;93.98;100921.81;5088951;28;20336;-67
2022/12/01 05:25:00;;;;;;;15.07;6.38;;;;;;;3.61;94.27;100921.38;5089128;28;20036;-68
2022/12/01 05:27:26;;;;;;;13.80;6.15;;;;;;;3.66;94.13;100920.06;5087923;28;20072;-68
2022/12/01 05:29:51;;;;;;;17.00;6.03;;;;;;;3.57;94.23;100920.72;5089406;28;20032;-69
2022/12/01 05:32:16;;;;;;;19.52;6.25;;;;;;;3.65;93.18;100920.16;5088543;28;20040;-68
2022/12/01 05:34:42;;;;;;;13.80;6.07;;;;;;;3.69;93.39;100916.38;5088862;28;20047;-68
2022/12/01 05:37:07;;;;;;;15.15;6.13;;;;;;;3.72;94.53;100918.78;5088816;28;20052;-68
2022/12/01 05:39:32;;;;;;;13.63;4.95;;;;;;;3.72;93.67;100916.16;5088779;28;20107;-67
2022/12/01 05:41:58;;;;;;;10.88;5.45;;;;;;;3.78;94.81;100920.94;5088501;28;20036;-66
2022/12/01 05:44:23;;;;;;;16.08;6.82;;;;;;;3.79;94.08;100926.13;5088715;28;20085;-68
2022/12/01 05:46:49;;;;;;;16.27;6.30;;;;;;;3.81;94.68;100920.75;5088619;28;20540;-68
2022/12/01 05:49:14;;;;;;;16.58;6.75;;;;;;;3.80;93.66;100916.44;5088624;28;20116;-68
2022/12/01 05:51:41;;;;;;;15.77;6.30;;;;;;;3.77;94.02;100927.19;5088145;28;20082;-68
2022/12/01 05:54:07;;;;;;;12.23;6.32;;;;;;;3.80;94.41;100921.69;5088602;28;20040;-68
2022/12/01 05:56:32;;;;;;;13.20;5.80;;;;;;;3.78;94.32;100927.09;5088543;28;20059;-67
2022/12/01 05:58:58;;;;;;;18.55;6.72;;;;;;;3.86;93.94;100933.59;5088510;28;20132;-68
2022/12/01 06:01:23;;;;;;;13.15;5.55;;;;;;;3.76;94.80;100925.50;5088035;28;20049;-68
2022/12/01 06:03:48;;;;;;;13.57;5.85;;;;;;;3.75;95.46;100923.81;5088422;28;20451;-67
2022/12/01 06:06:14;;;;;;;13.50;5.70;;;;;;;3.74;95.73;100924.78;5088192;28;20110;-68
2022/12/01 06:08:39;;;;;;;10.65;4.80;;;;;;;3.81;95.32;100918.09;5088340;28;20063;-68
2022/12/01 06:11:05;;;;;;;16.88;6.20;;;;;;;3.79;95.78;100928.75;5087787;28;20043;-68
2022/12/01 06:13:30;;;;;;;12.02;5.50;;;;;;;3.79;95.70;100931.41;5088150;28;20036;-69
2022/12/01 06:15:57;;;;;;;15.75;7.78;;;;;;;3.81;94.99;100929.47;5088011;28;20230;-68
2022/12/01 06:18:23;;;;;;;13.80;6.27;;;;;;;3.80;95.05;100929.59;5088143;28;20427;-68
2022/12/01 06:20:49;;;;;;;13.70;5.05;;;;;;;3.79;94.76;100923.50;5087583;28;20310;-68
2022/12/01 06:23:14;;;;;;;11.85;5.18;;;;;;;3.80;95.70;100927.81;5087976;28;20068;-68
2022/12/01 06:25:39;;;;;;;12.55;6.28;;;;;;;3.81;95.66;100934.75;5087818;28;20434;-68
2022/12/01 06:28:05;;;;;;;15.55;6.50;;;;;;;3.83;95.11;100936.44;5087819;28;20036;-67
2022/12/01 06:30:30;;;;;;;15.05;6.97;;;;;;;3.83;94.85;100932.00;5087433;28;20397;-68
2022/12/01 06:32:56;;;;;;;12.40;5.60;;;;;;;3.83;95.66;100932.00;5080037;28;20116;-68
2022/12/01 06:35:21;;;;;;;17.27;6.70;;;;;;;3.86;93.80;100931.78;5074178;28;20453;-67
2022/12/01 06:37:46;;;;;;;13.55;5.53;;;;;;;3.75;94.46;100929.09;5074277;28;20032;-68
2022/12/01 06:40:12;;;;;;;13.57;4.70;;;;;;;3.78;94.15;100936.75;5073891;28;20075;-65
2022/12/01 06:42:38;;;;;;;12.73;5.60;;;;;;;3.81;94.48;100934.75;5074027;28;20040;-68
2022/12/01 06:45:04;;;;;;;17.00;6.43;;;;;;;3.86;94.62;100936.22;5073989;28;20047;-67
2022/12/01 06:47:29;;;;;;;13.52;5.82;;;;;;;3.75;96.44;100935.19;5073912;28;20052;-67
2022/12/01 06:49:55;;;;;;;13.45;6.63;;;;;;;3.78;95.62;100939.38;5073880;28;20040;-68
2022/12/01 06:52:20;;;;;;;11.93;4.93;;;;;;;3.75;97.58;100944.91;5073617;28;20033;-67
2022/12/01 06:54:45;;;;;;;12.43;5.45;;;;;;;3.80;94.88;100942.78;5073932;28;20556;-67
2022/12/01 06:57:11;;;;;;;12.88;5.63;;;;;;;3.84;94.02;100943.38;5073843;28;20037;-68
2022/12/01 06:59:36;;;;;;;14.30;6.45;;;;;;;3.84;93.88;100946.00;5073877;28;20051;-67
2022/12/01 07:02:02;;;;;;;22.10;7.10;;;;;;;3.79;94.56;100946.38;5073459;28;20040;-67
2022/12/01 07:04:28;;;;;;;11.93;5.38;;;;;;;3.80;94.99;100945.41;5073752;28;20137;-67
2022/12/01 07:06:53;;;;;;;14.73;5.70;;;;;;;3.78;95.66;100945.53;5073606;28;20047;-65
2022/12/01 07:09:19;;;;;;;18.83;6.22;;;;;;;3.85;95.03;100947.69;5073643;28;20477;-69
2022/12/01 07:11:44;;;;;;;13.43;5.45;;;;;;;3.89;95.96;100944.72;5073277;28;20074;-69
2022/12/01 07:14:23;;;;;;;12.77;5.03;;;;;;;3.84;97.07;100946.00;5073617;28;20051;-69
2022/12/01 07:16:48;;;;;;;17.00;6.47;;;;;;;3.89;95.07;100951.78;5073476;28;20481;-68
2022/12/01 07:19:14;;;;;;;17.25;6.40;;;;;;;3.90;93.83;100956.09;5073613;28;20021;-68
2022/12/01 07:21:39;;;;;;;16.42;6.28;;;;;;;3.87;94.48;100949.28;5073205;28;20425;-69
2022/12/01 07:24:05;;;;;;;17.83;6.18;;;;;;;3.89;94.14;100957.06;5073446;28;20478;-68
2022/12/01 07:26:30;;;;;;;13.23;5.65;;;;;;;3.92;94.52;100960.34;5073197;28;20040;-68
2022/12/01 07:28:55;;;;;;;15.63;5.80;;;;;;;3.96;93.51;100959.13;5073341;28;20093;-68
2022/12/01 07:31:21;;;;;;;13.68;5.35;;;;;;;3.94;94.46;100966.31;5072869;28;20040;-69
2022/12/01 07:33:46;;;;;;;18.90;6.88;;;;;;;3.94;94.22;100961.06;5073220;28;20443;-67
2022/12/01 07:36:12;;;;;;;17.98;6.15;;;;;;;3.92;94.34;100967.41;5072721;28;20040;-69
2022/12/01 07:38:38;;;;;;;15.48;5.50;;;;;;;3.95;93.62;100967.16;5073134;28;20111;-66
2022/12/01 07:41:15;;;;;;;15.55;6.40;;;;;;;3.97;93.21;100971.34;5072756;28;20040;-68
2022/12/01 07:43:41;;;;;;;15.27;5.70;;;;;;;3.97;93.61;100983.69;5072422;28;20037;-69
2022/12/01 07:46:07;;;;;;;15.40;6.32;;;;;;;3.89;93.84;100978.16;5072565;28;20424;-68
2022/12/01 07:48:33;;;;;;;17.38;5.60;;;;;;;3.96;94.03;100982.84;5054824;28;20040;-67
2022/12/01 07:50:58;;;;;;;16.40;5.63;;;;;;;3.93;93.86;100977.81;5072607;28;20043;-67
2022/12/01 07:53:24;;;;;;;15.02;6.10;;;;;;;3.89;94.86;100984.25;5073293;28;20040;-68
2022/12/01 07:55:49;;;;;;;16.63;6.38;;;;;;;3.94;95.08;100986.56;5073075;28;20066;-65
2022/12/01 07:58:15;;;;;;;23.67;7.32;;;;;;;3.92;94.15;100981.41;5072954;28;20135;-65
2022/12/01 08:00:41;;;;;;;14.50;6.53;;;;;;;3.97;93.90;100989.81;5072546;28;20055;-67
2022/12/01 08:03:06;;;;;;;17.40;5.95;;;;;;;3.94;95.14;100987.41;5072744;28;20477;-67
2022/12/01 08:05:32;;;;;;;14.93;5.95;;;;;;;4.00;95.15;100992.22;5072592;28;20064;-66
2022/12/01 08:07:57;;;;;;;17.45;7.32;;;;;;;4.01;95.07;100988.63;5072487;28;20040;-65
2022/12/01 08:10:23;;;;;;;15.23;6.18;;;;;;;3.94;97.21;100990.03;5071911;28;20103;-66
2022/12/01 08:12:48;;;;;;;21.23;7.03;;;;;;;4.01;95.90;100991.28;5072447;28;20079;-65
2022/12/01 08:15:14;;;;;;;16.48;7.38;;;;;;;4.06;95.39;100990.94;5072204;28;20543;-67
2022/12/01 08:17:39;;;;;;;15.20;6.03;;;;;;;4.02;94.80;100989.47;5054525;28;20056;-69
2022/12/01 08:20:05;;;;;;;14.45;6.70;;;;;;;3.96;94.81;100985.50;5072155;28;20607;-69
2022/12/01 08:22:31;;;;;;;11.23;6.28;;;;;;;4.03;95.42;100992.00;5071886;28;20106;-70
2022/12/01 08:24:56;;;;;;;18.55;7.15;;;;;;;4.07;94.36;100995.25;5072151;28;20132;-66
2022/12/01 08:27:22;;;;;;;14.88;6.10;;;;;;;4.12;95.38;101000.19;5072347;28;20033;-66
2022/12/01 08:29:47;;;;;;;17.63;6.13;;;;;;;4.11;94.60;101002.00;5072031;28;20166;-66
2022/12/01 08:32:13;;;;;;;16.05;5.82;;;;;;;4.15;95.17;100997.31;5071703;28;20047;-66
2022/12/01 08:34:39;;;;;;;21.67;7.70;;;;;;;4.16;95.61;101001.63;5071950;28;20043;-66
2022/12/01 08:37:05;;;;;;;17.90;6.38;;;;;;;4.16;94.64;101002.47;5071879;28;20032;-66
2022/12/01 08:39:30;;;;;;;17.92;6.15;;;;;;;4.17;93.19;101003.31;5071810;28;20071;-66
2022/12/01 08:41:56;;;;;;;15.27;6.22;;;;;;;4.07;94.32;101004.00;5071732;28;20119;-66
2022/12/01 08:44:21;;;;;;;14.07;5.85;;;;;;;4.18;93.57;101008.50;5071883;28;20044;-67
2022/12/01 08:46:47;;;;;;;14.57;5.88;;;;;;;4.16;93.65;101007.75;5071802;28;20075;-69
2022/12/01 08:49:12;;;;;;;12.63;5.75;;;;;;;4.21;92.87;101010.91;5071648;28;20371;-66
2022/12/01 08:51:37;;;;;;;19.85;6.88;;;;;;;4.18;92.36;101012.94;5071397;28;20458;-69
2022/12/01 08:54:03;;;;;;;15.48;6.50;;;;;;;4.16;92.54;101007.75;5053642;28;20074;-66
2022/12/01 08:56:37;;;;;;;12.88;5.70;;;;;;;4.18;92.64;101012.94;5071480;28;20046;-68
2022/12/01 08:59:03;;;;;;;11.25;4.82;;;;;;;4.22;92.05;101015.22;5071712;28;20478;-66
2022/12/01 09:01:29;;;;;;;14.38;6.40;;;;;;;4.24;91.37;101018.59;5071347;28;20052;-65
2022/12/01 09:04:07;;;;;;;16.25;5.55;;;;;;;4.08;92.32;100999.56;5071702;28;20037;-65
2022/12/01 09:06:43;;;;;;;14.35;6.60;;;;;;;4.16;92.31;101014.81;5071570;28;20036;-66
2022/12/01 09:09:18;;;;;;;21.10;6.78;;;;;;;4.16;93.36;101013.03;5071621;28;20128;-65
2022/12/01 09:11:44;;;;;;;20.02;7.28;;;;;;;4.09;93.99;101015.28;5071301;28;20045;-66
2022/12/01 09:14:16;;;;;;;13.68;5.93;;;;;;;4.15;93.43;101016.63;5071527;28;20028;-66
2022/12/01 09:16:43;;;;;;;14.38;6.03;;;;;;;4.12;93.43;101016.03;5071498;28;20473;-66
2022/12/01 09:19:09;;;;;;;23.10;6.68;;;;;;;4.22;92.55;101011.72;5071513;28;20060;-68
2022/12/01 09:21:38;;;;;;;14.82;6.00;;;;;;;4.26;92.90;101013.19;5070850;28;20036;-69
2022/12/01 09:24:05;;;;;;;18.13;6.63;;;;;;;4.27;91.41;101026.25;5071451;28;20583;-68
2022/12/01 09:26:31;;;;;;;13.57;5.78;;;;;;;4.13;92.14;101013.25;5071334;28;20044;-69
2022/12/01 09:29:00;;;;;;;19.75;6.60;;;;;;;4.13;92.65;101017.69;5071443;28;20040;-65
2022/12/01 09:31:26;;;;;;;16.83;5.85;;;;;;;4.19;92.46;101015.44;5070910;28;20028;-66
2022/12/01 09:33:59;;;;;;;17.92;6.55;;;;;;;4.15;91.82;101016.63;5071143;28;20749;-65
2022/12/01 09:36:25;;;;;;;15.88;5.55;;;;;;;4.20;92.08;101017.13;5071283;28;20093;-68
2022/12/01 09:38:51;;;;;;;20.52;6.43;;;;;;;4.23;92.12;101019.53;5071241;28;20548;-66
2022/12/01 09:41:31;;;;;;;14.93;6.45;;;;;;;4.25;92.39;101027.34;5070918;28;20131;-68
2022/12/01 09:44:14;;;;;;;15.73;6.50;;;;;;;4.28;91.86;101021.84;5053295;28;20056;-66
2022/12/01 09:47:04;;;;;;;15.60;6.20;;;;;;;4.24;92.42;101018.59;5071170;28;20048;-66
2022/12/01 09:49:59;;;;;;;13.77;6.07;;;;;;;4.22;91.76;101014.38;5071223;28;20492;-69
2022/12/01 09:52:27;;;;;;;16.70;5.82;;;;;;;4.24;92.22;101005.41;5043732;28;20140;-65
2022/12/01 09:54:54;;;;;;;15.07;5.18;;;;;;;4.26;92.97;101011.41;5071161;28;20393;-68
2022/12/01 09:57:29;;;;;;;15.60;6.72;;;;;;;4.23;93.01;101013.41;5070914;28;20039;-67
2022/12/01 09:59:55;;;;;;;16.05;6.47;;;;;;;4.13;92.52;101008.00;5071008;28;20055;-68
2022/12/01 10:02:35;;;;;;;11.25;5.85;;;;;;;4.24;92.89;101005.41;5070823;28;20486;-68
2022/12/01 10:05:10;;;;;;;20.60;5.55;;;;;;;4.24;92.22;101001.94;5070932;28;20039;-67
2022/12/01 10:07:42;;;;;;;15.25;6.47;;;;;;;4.29;94.53;101000.59;5071982;28;20043;-67
2022/12/01 10:10:15;;;;;;;16.33;5.88;;;;;;;4.36;94.04;100998.34;5074670;28;20093;-68
2022/12/01 10:12:42;;;;;;;19.75;5.70;;;;;;;4.42;91.73;100997.91;5074668;28;20123;-66
2022/12/01 10:15:23;;;;;;;12.25;5.97;;;;;;;4.21;92.80;100995.06;5074849;28;20040;-67
2022/12/01 10:17:57;;;;;;;11.52;5.90;;;;;;;4.30;93.38;100982.97;5074674;28;20047;-68
2022/12/01 10:20:47;;;;;;;16.80;5.97;;;;;;;4.13;92.89;100984.25;5074225;28;20033;-68
2022/12/01 10:23:40;;;;;;;14.00;5.63;;;;;;;4.25;92.67;100988.63;5074535;28;20056;-68
2022/12/01 10:26:13;;;;;;;13.27;5.35;;;;;;;4.27;92.73;100977.94;5074418;28;20068;-67
2022/12/01 10:29:09;;;;;;;17.58;6.07;;;;;;;4.23;94.50;100977.31;5074624;28;20035;-67
2022/12/01 10:31:47;;;;;;;15.25;5.40;;;;;;;4.25;92.91;100969.31;5073983;28;20465;-68
2022/12/01 10:34:21;;;;;;;14.88;6.50;;;;;;;4.34;92.80;100972.09;5074251;28;20028;-68
2022/12/01 10:36:46;;;;;;;19.15;7.20;;;;;;;4.36;92.20;100969.34;5074323;28;20036;-68
2022/12/01 10:39:25;;;;;;;20.17;6.53;;;;;;;4.44;91.75;100964.34;5074280;28;20078;-68
2022/12/01 10:41:51;;;;;;;13.05;5.47;;;;;;;4.47;92.39;100964.09;5074006;28;20120;-67
2022/12/01 10:44:17;;;;;;;11.65;5.85;;;;;;;4.44;92.38;100966.16;5074244;28;20135;-68
2022/12/01 10:46:53;;;;;;;18.35;6.88;;;;;;;4.33;92.87;100959.88;5073959;28;20033;-68
2022/12/01 10:49:19;;;;;;;14.77;5.25;;;;;;;4.46;92.21;100961.59;5074177;28;20040;-68
2022/12/01 10:51:56;;;;;;;14.38;6.32;;;;;;;4.50;91.55;100966.53;5073662;28;20115;-68
2022/12/01 10:54:30;;;;;;;11.73;5.03;;;;;;;4.38;93.33;100954.25;5074058;28;20029;-68
2022/12/01 10:56:57;;;;;;;19.20;6.47;;;;;;;4.46;92.99;100961.59;5074064;28;20071;-68
2022/12/01 10:59:28;;;;;;;13.38;5.43;;;;;;;4.45;92.39;100947.56;5073983;28;20060;-68
2022/12/01 11:01:55;;;;;;;16.10;6.05;;;;;;;4.49;92.78;100946.34;5073682;28;20041;-68
2022/12/01 11:04:44;;;;;;;17.20;6.15;;;;;;;4.50;93.68;100940.13;5073843;28;20458;-67
2022/12/01 11:07:15;;;;;;;17.42;6.88;;;;;;;4.55;91.72;100934.47;5073757;28;20397;-67
2022/12/01 11:09:44;;;;;;;15.40;6.00;;;;;;;4.55;92.25;100935.31;5073820;28;20040;-67
2022/12/01 11:12:15;;;;;;;14.18;6.00;;;;;;;4.43;91.33;100940.69;5073251;28;20036;-69
2022/12/01 11:14:50;;;;;;;16.65;5.20;;;;;;;4.49;91.34;100935.78;5073656;28;20393;-68
2022/12/01 11:17:34;;;;;;;12.45;5.25;;;;;;;4.52;91.08;100938.22;5073439;28;20032;-67
2022/12/01 11:20:26;;;;;;;16.88;6.45;;;;;;;4.53;90.95;100931.97;5073246;28;20036;-69
2022/12/01 11:23:12;;;;;;;13.23;5.63;;;;;;;4.58;90.82;100929.81;5073391;28;20116;-67
2022/12/01 11:25:38;;;;;;;14.50;5.45;;;;;;;4.52;91.07;100926.81;5073255;28;20051;-67
2022/12/01 11:28:04;;;;;;;14.02;5.50;;;;;;;4.45;91.59;100930.88;5055449;28;20041;-68
2022/12/01 11:30:31;;;;;;;13.90;5.55;;;;;;;4.55;93.98;100939.75;5073186;28;20106;-68
2022/12/01 11:32:59;;;;;;;15.68;6.38;;;;;;;4.59;92.28;100928.88;5073272;28;20040;-68
2022/12/01 11:35:29;;;;;;;15.45;6.45;;;;;;;4.58;92.00;100924.53;5055312;28;20463;-68
2022/12/01 11:37:56;;;;;;;13.73;5.50;;;;;;;4.52;92.49;100929.47;5073159;28;20025;-67
2022/12/01 11:40:29;;;;;;;;;;;;;;;4.52;94.84;100932.09;5073336;28;20493;-68
2022/12/01 11:42:59;;;;;;;15.18;5.10;;;;;;;4.52;94.15;100924.19;5072924;28;19917;-68
2022/12/01 11:45:41;;;;;;;12.95;5.40;;;;;;;4.53;92.56;100925.84;5062670;28;20043;-68
2022/12/01 11:48:16;;;;;;;18.17;6.15;;;;;;;4.49;94.45;100922.59;5063065;28;20107;-68
2022/12/01 11:50:43;;;;;;;18.65;6.82;;;;;;;4.57;92.46;100917.59;5061377;28;20041;-68
2022/12/01 11:53:30;;;;;;;15.97;5.67;;;;;;;4.48;92.56;100891.06;5061569;28;20687;-68
2022/12/01 11:56:19;;;;;;;14.03;5.30;;;;;;;4.68;91.87;100913.28;5060842;28;20284;-68
2022/12/01 11:58:47;;;;;;;18.10;6.05;;;;;;;4.70;91.11;100916.66;5062373;28;20021;-68
2022/12/01 12:01:47;;;;;;;17.35;6.00;;;;;;;4.77;91.17;100915.22;5044163;28;20377;-68
2022/12/01 12:04:30;;;;;;;11.93;5.60;;;;;;;4.75;91.26;100903.91;5063032;28;20444;-68
2022/12/01 12:07:07;;;;;;;15.85;5.53;;;;;;;4.65;91.16;100895.88;5065468;28;20032;-67
2022/12/01 12:09:39;;;;;;;13.35;5.75;;;;;;;4.81;90.18;100906.91;5072465;28;20067;-68
2022/12/01 12:12:25;;;;;;;14.50;6.57;;;;;;;4.73;90.95;100906.69;5072049;28;20041;-67
2022/12/01 12:15:12;;;;;;;12.77;6.15;;;;;;;4.77;90.19;100904.66;5072428;28;20044;-68
2022/12/01 12:18:05;;;;;;;14.48;5.97;;;;;;;4.83;91.07;100912.94;5072497;28;20075;-68
2022/12/01 12:20:39;;;;;;;17.75;5.72;;;;;;;4.81;90.79;100911.34;5071955;28;20481;-67
2022/12/01 12:23:17;;;;;;;14.55;5.53;;;;;;;4.77;90.88;100913.41;5072290;28;20079;-68
2022/12/01 12:25:57;;;;;;;15.18;6.18;;;;;;;4.82;91.03;100913.03;5066223;28;20032;-67
2022/12/01 12:28:26;;;;;;;11.82;5.45;;;;;;;4.65;92.19;100908.25;5072173;28;20047;-67
2022/12/01 12:31:01;;;;;;;11.30;5.43;;;;;;;4.70;93.22;100903.44;5071201;28;20036;-66
2022/12/01 12:33:42;;;;;;;12.60;5.93;;;;;;;4.77;92.26;100907.28;5072232;28;20044;-68
2022/12/01 12:36:23;;;;;;;14.07;5.97;;;;;;;4.78;92.20;100899.25;5072010;28;20040;-68
2022/12/01 12:38:51;;;;;;;16.15;4.43;;;;;;;4.83;91.10;100907.66;5054180;28;20033;-69
2022/12/01 12:41:30;;;;;;;13.40;6.03;;;;;;;4.83;90.74;100907.66;5071809;28;20103;-68
2022/12/01 12:44:19;;;;;;;17.88;5.65;;;;;;;4.82;93.05;100891.91;5071912;28;20032;-68
2022/12/01 12:46:51;;;;;;;17.35;6.07;;;;;;;4.78;91.28;100898.41;5071256;28;20055;-68
2022/12/01 12:49:38;;;;;;;16.95;6.18;;;;;;;4.67;92.90;100899.22;5071978;28;20059;-67
2022/12/01 12:52:27;;;;;;;14.63;5.80;;;;;;;4.73;91.79;100897.91;5053829;28;20036;-68
2022/12/01 12:54:57;;;;;;;17.48;7.13;;;;;;;4.78;91.58;100898.41;5068631;28;20421;-69
2022/12/01 12:57:55;;;;;;;15.85;5.75;;;;;;;4.86;91.07;100901.28;5065886;28;20142;-68
2022/12/01 13:00:23;;;;;;;;;;;;;;;4.74;90.44;100897.78;5052411;28;20056;-68
2022/12/01 13:02:58;;;;;;;13.55;6.15;;;;;;;4.66;92.50;100894.91;5071769;28;19909;-68
2022/12/01 13:05:37;;;;;;;10.05;4.65;;;;;;;4.74;90.95;100891.69;5071727;28;20482;-67
2022/12/01 13:08:19;;;;;;;13.70;5.07;;;;;;;4.86;90.19;100888.06;5071792;28;20481;-67
2022/12/01 13:11:20;;;;;;;14.48;6.88;;;;;;;4.87;89.74;100889.75;5071512;28;20024;-69
2022/12/01 13:14:02;;;;;;;11.45;4.55;;;;;;;4.92;93.49;100892.03;5053948;28;20060;-68
2022/12/01 13:16:56;;;;;;;12.95;6.05;;;;;;;4.80;93.07;100894.69;5071556;28;20086;-67
2022/12/01 13:19:27;;;;;;;15.93;6.22;;;;;;;4.85;91.20;100891.69;5068767;28;20162;-68
2022/12/01 13:21:54;;;;;;;12.63;5.63;;;;;;;4.73;91.13;100895.28;5071119;28;20028;-68
2022/12/01 13:24:23;;;;;;;19.58;6.57;;;;;;;4.69;92.32;100894.66;5071410;28;20093;-68
2022/12/01 13:26:58;;;;;;;15.98;7.18;;;;;;;4.78;91.30;100893.13;5071360;28;20049;-69
2022/12/01 13:29:25;;;;;;;19.17;6.13;;;;;;;4.78;91.49;100882.56;5071455;28;20060;-67
2022/12/01 13:31:53;;;;;;;10.98;5.45;;;;;;;4.78;92.36;100893.13;5071095;28;20024;-67
2022/12/01 13:34:24;;;;;;;;;;;;;;;4.84;90.63;100887.38;5071825;28;20036;-66
2022/12/01 13:36:51;;;;;;;15.27;6.15;;;;;;;4.87;90.65;100887.94;5071320;28;19912;-67
2022/12/01 13:39:21;;;;;;;15.52;5.50;;;;;;;4.86;91.72;100877.53;5068914;28;20045;-68
2022/12/01 13:41:58;;;;;;;12.65;4.68;;;;;;;4.85;91.58;100881.97;5050949;28;20033;-68
2022/12/01 13:44:43;;;;;;;15.30;5.90;;;;;;;4.85;92.06;100875.84;5055360;28;20048;-68
2022/12/01 13:47:29;;;;;;;15.75;5.72;;;;;;;4.90;91.78;100876.31;5055276;28;20040;-68
2022/12/01 13:49:57;;;;;;;11.55;5.22;;;;;;;4.87;91.23;100872.09;5055111;28;20182;-69
2022/12/01 13:52:24;;;;;;;14.43;6.50;;;;;;;4.83;91.34;100868.06;5055007;28;20033;-67
2022/12/01 13:55:08;;;;;;;12.80;4.97;;;;;;;4.75;90.50;100874.88;5055201;28;20041;-67
2022/12/01 13:57:44;;;;;;;16.17;6.07;;;;;;;4.79;91.06;100873.69;5055056;28;20082;-68
2022/12/01 14:00:21;;;;;;;14.20;4.93;;;;;;;4.76;91.48;100868.63;5054935;28;20033;-69
2022/12/01 14:03:12;;;;;;;19.13;5.95;;;;;;;4.83;90.76;100864.56;5055307;28;20033;-68
2022/12/01 14:05:40;;;;;;;11.88;4.82;;;;;;;4.83;90.59;100868.06;5054751;28;20042;-68
2022/12/01 14:08:38;;;;;;;18.77;5.95;;;;;;;4.79;92.25;100863.13;5055036;28;20048;-68
2022/12/01 14:11:27;;;;;;;12.20;5.65;;;;;;;4.80;92.59;100860.34;5039300;28;20041;-68
2022/12/01 14:13:52;;;;;;;10.38;4.95;;;;;;;4.80;91.55;100864.81;5054770;28;20036;-68
2022/12/01 14:16:18;;;;;;;10.52;4.90;;;;;;;4.83;91.83;100865.41;5054733;28;20028;-68
2022/12/01 14:18:57;;;;;;;13.68;5.53;;;;;;;4.85;92.26;100868.75;5054646;28;20033;-69
2022/12/01 14:21:52;;;;;;;16.10;6.32;;;;;;;4.79;91.74;100868.41;5054191;28;20033;-68
2022/12/01 14:24:30;;;;;;;16.25;6.15;;;;;;;4.87;91.14;100871.28;5026924;28;20052;-70
2022/12/01 14:26:56;;;;;;;15.32;5.57;;;;;;;4.83;90.53;100865.41;5054493;28;20379;-69
2022/12/01 14:29:31;;;;;;;18.17;5.88;;;;;;;4.87;89.96;100866.00;5054340;28;20028;-68
2022/12/01 14:32:04;;;;;;;14.40;6.00;;;;;;;4.80;91.81;100859.53;5054002;28;20119;-68
2022/12/01 14:34:33;;;;;;;15.50;6.35;;;;;;;4.73;92.48;100853.06;5054368;28;20029;-68
2022/12/01 14:37:04;;;;;;;10.75;5.35;;;;;;;4.68;93.67;100858.69;5054299;28;20029;-67
2022/12/01 14:39:57;;;;;;;13.45;5.35;;;;;;;4.75;94.96;100859.88;5054261;28;20045;-68
2022/12/01 14:45:14;;;;;;;12.55;5.68;;;;;;;4.84;91.61;100866.25;5054237;28;20639;-68
2022/12/01 14:47:48;;;;;;;9.90;5.00;;;;;;;4.83;90.95;100867.22;5036470;28;20478;-67
2022/12/01 14:50:39;;;;;;;15.75;5.75;;;;;;;4.87;91.43;100874.75;5053906;28;20052;-67
2022/12/01 14:53:16;;;;;;;13.95;6.50;;;;;;;4.83;91.32;100873.34;5026866;28;20044;-68
2022/12/01 14:55:49;;;;;;;19.20;6.60;;;;;;;4.83;91.28;100868.06;5054265;28;20115;-68
2022/12/01 14:58:19;;;;;;;16.45;5.75;;;;;;;4.83;91.00;100873.34;5054264;28;20148;-67
2022/12/01 15:01:01;;;;;;;18.13;6.40;;;;;;;4.76;91.70;100866.84;5053636;28;20032;-67
2022/12/01 15:03:42;;;;;;;14.85;5.35;;;;;;;4.77;92.33;100868.53;5053881;28;20041;-67
2022/12/01 15:06:09;;;;;;;16.85;6.25;;;;;;;4.81;92.08;100871.75;5053964;28;20045;-67
2022/12/01 15:08:37;;;;;;;15.00;6.60;;;;;;;4.82;93.50;100876.06;5053820;28;20059;-68
2022/12/01 15:11:05;;;;;;;14.33;5.83;;;;;;;4.82;94.62;100869.00;5052962;28;20033;-68
2022/12/01 15:13:42;;;;;;;12.82;5.80;;;;;;;4.81;92.80;100866.47;5053441;28;20072;-67
2022/12/01 15:16:18;;;;;;;16.20;6.07;;;;;;;4.84;92.81;100869.72;5053496;28;20051;-67
2022/12/01 15:18:45;;;;;;;15.77;5.65;;;;;;;4.83;93.32;100867.22;5053543;28;20037;-68
2022/12/01 15:21:26;;;;;;;15.13;5.32;;;;;;;4.77;92.95;100860.63;5052913;28;20167;-68
2022/12/01 15:24:18;;;;;;;16.75;5.85;;;;;;;4.69;94.82;100857.72;5053323;28;20047;-68
2022/12/01 15:27:20;;;;;;;13.63;5.72;;;;;;;4.80;93.18;100862.16;5053249;28;20065;-68
2022/12/01 15:29:45;;;;;;;15.73;6.50;;;;;;;4.78;91.49;100864.94;5053316;28;20044;-68
2022/12/01 15:32:15;;;;;;;15.50;5.65;;;;;;;4.80;92.24;100857.72;5052830;28;20045;-68
2022/12/01 15:34:44;;;;;;;15.15;6.18;;;;;;;4.72;92.39;100856.66;5053293;28;20048;-68
2022/12/01 15:37:13;;;;;;;14.80;6.43;;;;;;;4.73;92.53;100859.16;5053098;28;20037;-68
2022/12/01 15:39:47;;;;;;;15.25;6.13;;;;;;;4.75;92.17;100857.25;5053087;28;20494;-68
2022/12/01 15:42:32;;;;;;;10.63;5.45;;;;;;;4.75;92.27;100853.75;5052799;28;20417;-68
2022/12/01 15:45:01;;;;;;;14.70;6.32;;;;;;;4.79;92.46;100869.25;5052897;28;20520;-67
2022/12/01 15:47:44;;;;;;;15.75;5.70;;;;;;;4.79;92.91;100863.13;5052677;28;20044;-67
2022/12/01 15:50:35;;;;;;;19.35;6.85;;;;;;;4.77;92.21;100865.91;5052834;28;20047;-66
2022/12/01 15:53:06;;;;;;;15.93;6.95;;;;;;;4.77;92.84;100867.69;5052775;28;20044;-67
2022/12/01 15:55:37;;;;;;;17.70;7.60;;;;;;;4.70;93.20;100854.16;5052714;28;20494;-67
2022/12/01 15:58:06;;;;;;;12.65;5.72;;;;;;;4.76;95.36;100858.06;5052626;28;20044;-67
2022/12/01 16:00:32;;;;;;;14.23;5.45;;;;;;;4.77;93.96;100857.13;5052239;28;20041;-67
2022/12/01 16:02:59;;;;;;;16.98;5.78;;;;;;;4.68;93.31;100857.84;5052684;28;20095;-67
2022/12/01 16:05:33;;;;;;;12.73;6.07;;;;;;;4.74;94.03;100867.91;5051532;28;20064;-66
2022/12/01 16:08:20;;;;;;;14.75;5.85;;;;;;;4.77;93.08;100870.34;5052526;28;20040;-65
2022/12/01 16:11:13;;;;;;;13.38;5.85;;;;;;;4.70;93.20;100869.16;5052210;28;20086;-67
2022/12/01 16:14:23;;;;;;;13.20;5.55;;;;;;;4.73;93.17;100858.34;5052377;28;20102;-67
2022/12/01 16:16:50;;;;;;;14.63;5.47;;;;;;;4.70;94.65;100872.63;4989682;28;20044;-67
2022/12/01 16:19:15;;;;;;;12.63;4.80;;;;;;;4.69;94.04;100865.63;5052370;28;20044;-67
2022/12/01 16:21:51;;;;;;;16.58;6.60;;;;;;;4.70;92.12;100864.69;5051937;28;20131;-68
2022/12/01 16:24:19;;;;;;;14.38;5.68;;;;;;;4.70;94.65;100862.06;5052235;28;20032;-67
2022/12/01 16:27:07;;;;;;;13.52;4.63;;;;;;;4.61;95.73;100862.75;5052478;28;20040;-68
2022/12/01 16:29:45;;;;;;;10.68;5.50;;;;;;;4.64;93.91;100865.19;5051956;28;20064;-68
2022/12/01 16:32:19;;;;;;;14.43;5.30;;;;;;;4.66;95.45;100863.25;5052091;28;20033;-67
2022/12/01 16:34:46;;;;;;;13.63;6.00;;;;;;;4.59;96.42;100857.63;5052238;28;20462;-68
2022/12/01 16:37:11;;;;;;;14.43;5.57;;;;;;;4.56;96.07;100857.88;5051780;28;20032;-68
2022/12/01 16:39:37;;;;;;;12.45;5.47;;;;;;;4.53;94.21;100860.72;5051953;28;20045;-67
2022/12/01 16:42:02;;;;;;;11.98;4.45;;;;;;;4.54;95.77;100853.66;5033651;28;20033;-67
2022/12/01 16:44:28;;;;;;;15.25;5.80;;;;;;;4.56;95.00;100852.59;5052043;28;20437;-67
2022/12/01 16:46:53;;;;;;;15.05;6.38;;;;;;;4.59;95.30;100856.78;5052989;28;20037;-67
2022/12/01 16:49:19;;;;;;;15.32;5.60;;;;;;;4.61;94.18;100863.59;5052136;28;20069;-68
2022/12/01 16:51:45;;;;;;;13.05;5.88;;;;;;;4.62;94.60;100865.28;5051283;28;20037;-68
2022/12/01 16:54:10;;;;;;;14.63;6.40;;;;;;;4.65;93.37;100871.28;5051725;28;20048;-67
2022/12/01 16:56:35;;;;;;;16.63;5.10;;;;;;;4.61;93.70;100868.03;5051858;28;20044;-68
2022/12/01 16:59:01;;;;;;;12.25;4.57;;;;;;;4.61;94.21;100870.69;5051550;28;20167;-68
2022/12/01 17:01:27;;;;;;;14.32;6.00;;;;;;;4.61;95.21;100868.03;5051188;28;20045;-67
2022/12/01 17:03:53;;;;;;;17.60;6.07;;;;;;;4.62;94.16;100864.44;5051580;28;20037;-67
2022/12/01 17:06:19;;;;;;;13.40;5.43;;;;;;;4.58;94.84;100871.78;5051285;28;20041;-67
2022/12/01 17:08:44;;;;;;;12.65;5.30;;;;;;;4.56;96.53;100873.69;5051389;28;20037;-67
2022/12/01 17:11:10;;;;;;;13.73;5.45;;;;;;;4.65;95.92;100868.66;5051015;28;20128;-67
2022/12/01 17:13:37;;;;;;;12.55;5.53;;;;;;;4.68;95.70;100874.50;5051694;28;20071;-68